West Andover, Ohio
Current Conditions -  °F | °C
As of 12:53 AM on Tuesday 21 Oct 2014 (Local Time) from KHZY Reporting Station
Light Rain Light Rain  
Wind Chill: 51°   Ceiling: 600
Heat Index: 51°   Visibility: 4mi
Dew Point: 50°   Wind: 6mph
Humidity: 96%   Direction: 220°SW
Pressure: 29.83"   Gusts: NA
Location:  41.6317°N, 80.577°W
Report Text: KHZY 210453Z AUTO 22005KT 4SM -RA BR OVC006 11/10 A2983 RMK AO2 CIG 004V011 SLP102 P0018 T01060100 401330050
Loading
Personal Weather Stations






























Interactive Weather Map
Tropical Storm Tracking
New forecast layout! Learn more

10-Day Weather Forecast

Advertisements
Track Severe Weather on mobile